Pagina principale
METAR-TAF:

METAR-TAF

Aeroporti :

Crotone, Italia

Aeroporto di Crotone

latitudine: 39-00N, longitudine: 017-04E, altezza: 155 m

Osservazione

Il bollettino è stato emesso 9 ore e 8 minuti fa, alle 15:50 UTC
Vento 18 kt da sud-ovest con raffiche fino a 29 kt
Temperature 13°C
Umidità 62%
Pressione 1015 hPa
Visibilità 10 km o più
Poco nuvoloso ad un'altezza di 2000 ft

METAR: LIBC 161550Z 23018G29KT 9999 FEW020 13/06 Q1015

Ora: 01:58 (00:58 UTC)

Previsione

Il bollettino è stato emesso 7 ore e 58 minuti fa, alle 17:00 UTC
Previsione valida dal 16 alle 18 UTC al 17 alle 18 UTC
Vento 20 kt da sud-ovest con raffiche fino a 30 kt
Visibilità 10 km o più
Nubi sparse ad un'altezza di 3000 ft

TAF: LIBC 161700Z 1618/1718 22020G30KT 9999 SCT030

Osservazioni e previsioni meteorologiche di più di 4000 aeroporti (messaggi METAR e TAF).

Le stazioni disponibili sono rappresentate dai dischi gialli e rossi sulla carta.

Puntare il mouse per vedere il nome della stazione.

Clicca sopra per visualizzare le osservazioni e previsioni meteorologiche.

Per cambiare la mappa : fare clic sui pulsanti verdi con una croce nera per ingrandire, il pulsante verde con un trattino per diminuire, o sulla freccia verde per le mappe adiacenti.


METAR-TAF: